sensor_id;sensor_type;location;lat;lon;timestamp;P1;durP1;ratioP1;P2;durP2;ratioP2
35126;SDS011;21300;52.006;5.798;2022-07-22T00:01:05;16.45;;;2.95;;
35126;SDS011;21300;52.006;5.798;2022-07-22T00:03:31;7.32;;;2.65;;
35126;SDS011;21300;52.006;5.798;2022-07-22T00:05:57;6.43;;;2.38;;
35126;SDS011;21300;52.006;5.798;2022-07-22T00:08:22;6.80;;;2.28;;
35126;SDS011;21300;52.006;5.798;2022-07-22T00:10:48;11.15;;;2.47;;
35126;SDS011;21300;52.006;5.798;2022-07-22T00:13:13;6.43;;;1.67;;
35126;SDS011;21300;52.006;5.798;2022-07-22T00:15:39;11.30;;;2.45;;
35126;SDS011;21300;52.006;5.798;2022-07-22T00:18:05;6.93;;;2.00;;
35126;SDS011;21300;52.006;5.798;2022-07-22T00:20:30;6.32;;;1.95;;
35126;SDS011;21300;52.006;5.798;2022-07-22T00:22:56;5.93;;;2.08;;
35126;SDS011;21300;52.006;5.798;2022-07-22T00:25:22;7.78;;;2.60;;
35126;SDS011;21300;52.006;5.798;2022-07-22T00:27:48;10.05;;;2.13;;
35126;SDS011;21300;52.006;5.798;2022-07-22T00:30:13;7.32;;;1.90;;
35126;SDS011;21300;52.006;5.798;2022-07-22T00:32:39;7.57;;;2.17;;
35126;SDS011;21300;52.006;5.798;2022-07-22T00:35:05;6.45;;;2.42;;
35126;SDS011;21300;52.006;5.798;2022-07-22T00:37:31;7.40;;;1.90;;
35126;SDS011;21300;52.006;5.798;2022-07-22T00:39:57;9.10;;;2.72;;
35126;SDS011;21300;52.006;5.798;2022-07-22T00:42:22;10.90;;;2.03;;
35126;SDS011;21300;52.006;5.798;2022-07-22T00:44:48;12.45;;;2.17;;
35126;SDS011;21300;52.006;5.798;2022-07-22T00:47:14;8.23;;;2.30;;
35126;SDS011;21300;52.006;5.798;2022-07-22T00:49:39;8.95;;;2.03;;
35126;SDS011;21300;52.006;5.798;2022-07-22T00:52:05;8.95;;;2.40;;
35126;SDS011;21300;52.006;5.798;2022-07-22T00:54:31;7.60;;;2.20;;
35126;SDS011;21300;52.006;5.798;2022-07-22T00:56:57;10.40;;;2.47;;
35126;SDS011;21300;52.006;5.798;2022-07-22T00:59:23;7.55;;;2.35;;
35126;SDS011;21300;52.006;5.798;2022-07-22T01:01:49;6.70;;;2.45;;
35126;SDS011;21300;52.006;5.798;2022-07-22T01:04:15;14.80;;;2.70;;
35126;SDS011;21300;52.006;5.798;2022-07-22T01:06:41;8.43;;;2.28;;
35126;SDS011;21300;52.006;5.798;2022-07-22T01:09:09;9.00;;;2.50;;
35126;SDS011;21300;52.006;5.798;2022-07-22T01:11:36;10.60;;;3.38;;
35126;SDS011;21300;52.006;5.798;2022-07-22T01:14:02;10.70;;;2.35;;
35126;SDS011;21300;52.006;5.798;2022-07-22T01:16:28;10.95;;;2.47;;
35126;SDS011;21300;52.006;5.798;2022-07-22T01:18:54;10.05;;;2.58;;
35126;SDS011;21300;52.006;5.798;2022-07-22T01:21:20;5.57;;;2.00;;
35126;SDS011;21300;52.006;5.798;2022-07-22T01:23:46;6.80;;;2.35;;
35126;SDS011;21300;52.006;5.798;2022-07-22T01:26:12;9.35;;;2.40;;
35126;SDS011;21300;52.006;5.798;2022-07-22T01:28:39;7.18;;;2.30;;
35126;SDS011;21300;52.006;5.798;2022-07-22T01:31:05;11.07;;;2.65;;
35126;SDS011;21300;52.006;5.798;2022-07-22T01:33:32;7.85;;;2.35;;
35126;SDS011;21300;52.006;5.798;2022-07-22T01:36:00;7.53;;;2.25;;
35126;SDS011;21300;52.006;5.798;2022-07-22T01:38:26;9.20;;;2.33;;
35126;SDS011;21300;52.006;5.798;2022-07-22T01:40:51;7.80;;;2.10;;
35126;SDS011;21300;52.006;5.798;2022-07-22T01:43:17;9.48;;;2.28;;
35126;SDS011;21300;52.006;5.798;2022-07-22T01:45:46;9.32;;;2.45;;
35126;SDS011;21300;52.006;5.798;2022-07-22T01:48:13;9.88;;;1.92;;
35126;SDS011;21300;52.006;5.798;2022-07-22T01:50:39;8.77;;;2.28;;
35126;SDS011;21300;52.006;5.798;2022-07-22T01:53:06;7.22;;;2.03;;
35126;SDS011;21300;52.006;5.798;2022-07-22T01:55:32;9.70;;;2.30;;
35126;SDS011;21300;52.006;5.798;2022-07-22T01:57:58;8.25;;;2.85;;
35126;SDS011;21300;52.006;5.798;2022-07-22T02:00:24;10.32;;;2.38;;
35126;SDS011;21300;52.006;5.798;2022-07-22T02:02:49;10.57;;;2.60;;
35126;SDS011;21300;52.006;5.798;2022-07-22T02:05:15;8.77;;;2.50;;
35126;SDS011;21300;52.006;5.798;2022-07-22T02:07:41;6.53;;;2.30;;
35126;SDS011;21300;52.006;5.798;2022-07-22T02:10:06;8.95;;;2.58;;
35126;SDS011;21300;52.006;5.798;2022-07-22T02:12:32;6.97;;;2.28;;
35126;SDS011;21300;52.006;5.798;2022-07-22T02:14:58;7.63;;;2.15;;
35126;SDS011;21300;52.006;5.798;2022-07-22T02:17:42;8.45;;;2.00;;
35126;SDS011;21300;52.006;5.798;2022-07-22T02:20:08;11.90;;;2.88;;
35126;SDS011;21300;52.006;5.798;2022-07-22T02:22:34;10.25;;;2.15;;
35126;SDS011;21300;52.006;5.798;2022-07-22T02:24:59;8.50;;;2.05;;
35126;SDS011;21300;52.006;5.798;2022-07-22T02:27:25;6.80;;;2.28;;
35126;SDS011;21300;52.006;5.798;2022-07-22T02:29:51;10.25;;;2.42;;
35126;SDS011;21300;52.006;5.798;2022-07-22T02:32:17;5.95;;;2.10;;
35126;SDS011;21300;52.006;5.798;2022-07-22T02:34:42;9.25;;;2.55;;
35126;SDS011;21300;52.006;5.798;2022-07-22T02:37:08;7.75;;;2.30;;
35126;SDS011;21300;52.006;5.798;2022-07-22T02:39:34;6.20;;;2.47;;
35126;SDS011;21300;52.006;5.798;2022-07-22T02:41:59;9.93;;;2.50;;
35126;SDS011;21300;52.006;5.798;2022-07-22T02:44:25;8.65;;;2.30;;
35126;SDS011;21300;52.006;5.798;2022-07-22T02:46:50;6.88;;;2.15;;
35126;SDS011;21300;52.006;5.798;2022-07-22T02:49:16;7.63;;;2.42;;
35126;SDS011;21300;52.006;5.798;2022-07-22T02:51:42;6.75;;;2.40;;
35126;SDS011;21300;52.006;5.798;2022-07-22T02:54:07;8.80;;;2.55;;
35126;SDS011;21300;52.006;5.798;2022-07-22T02:56:33;7.95;;;2.33;;
35126;SDS011;21300;52.006;5.798;2022-07-22T02:58:58;8.40;;;2.22;;
35126;SDS011;21300;52.006;5.798;2022-07-22T03:01:24;8.20;;;2.40;;
35126;SDS011;21300;52.006;5.798;2022-07-22T03:03:50;7.10;;;2.45;;
35126;SDS011;21300;52.006;5.798;2022-07-22T03:06:15;4.65;;;2.25;;
35126;SDS011;21300;52.006;5.798;2022-07-22T03:08:41;4.60;;;1.98;;
35126;SDS011;21300;52.006;5.798;2022-07-22T03:11:06;4.97;;;2.38;;
35126;SDS011;21300;52.006;5.798;2022-07-22T03:13:32;9.73;;;2.33;;
35126;SDS011;21300;52.006;5.798;2022-07-22T03:15:58;5.82;;;2.20;;
35126;SDS011;21300;52.006;5.798;2022-07-22T03:18:23;6.38;;;2.08;;
35126;SDS011;21300;52.006;5.798;2022-07-22T03:20:49;8.70;;;2.03;;
35126;SDS011;21300;52.006;5.798;2022-07-22T03:23:15;4.93;;;1.85;;
35126;SDS011;21300;52.006;5.798;2022-07-22T03:25:40;6.65;;;2.28;;
35126;SDS011;21300;52.006;5.798;2022-07-22T03:28:06;7.38;;;2.83;;
35126;SDS011;21300;52.006;5.798;2022-07-22T03:30:32;6.10;;;2.20;;
35126;SDS011;21300;52.006;5.798;2022-07-22T03:32:58;6.10;;;2.60;;
35126;SDS011;21300;52.006;5.798;2022-07-22T03:35:24;7.07;;;2.30;;
35126;SDS011;21300;52.006;5.798;2022-07-22T03:37:50;5.57;;;2.50;;
35126;SDS011;21300;52.006;5.798;2022-07-22T03:40:15;5.82;;;2.08;;
35126;SDS011;21300;52.006;5.798;2022-07-22T03:42:41;3.28;;;2.15;;
35126;SDS011;21300;52.006;5.798;2022-07-22T03:45:07;6.80;;;2.38;;
35126;SDS011;21300;52.006;5.798;2022-07-22T03:47:34;6.45;;;2.30;;
35126;SDS011;21300;52.006;5.798;2022-07-22T03:50:00;3.65;;;2.13;;
35126;SDS011;21300;52.006;5.798;2022-07-22T03:52:27;6.57;;;2.58;;
35126;SDS011;21300;52.006;5.798;2022-07-22T03:54:56;6.53;;;2.60;;
35126;SDS011;21300;52.006;5.798;2022-07-22T03:57:21;6.30;;;2.20;;
35126;SDS011;21300;52.006;5.798;2022-07-22T03:59:47;11.05;;;2.22;;
35126;SDS011;21300;52.006;5.798;2022-07-22T04:02:12;7.85;;;2.70;;
35126;SDS011;21300;52.006;5.798;2022-07-22T04:04:38;9.65;;;2.65;;
35126;SDS011;21300;52.006;5.798;2022-07-22T04:07:04;7.55;;;2.63;;
35126;SDS011;21300;52.006;5.798;2022-07-22T04:09:30;8.30;;;3.03;;
35126;SDS011;21300;52.006;5.798;2022-07-22T04:11:55;7.55;;;2.55;;
35126;SDS011;21300;52.006;5.798;2022-07-22T04:14:21;5.18;;;2.38;;
35126;SDS011;21300;52.006;5.798;2022-07-22T04:16:46;6.60;;;2.67;;
35126;SDS011;21300;52.006;5.798;2022-07-22T04:19:12;4.05;;;2.20;;
35126;SDS011;21300;52.006;5.798;2022-07-22T04:21:39;6.60;;;2.95;;
35126;SDS011;21300;52.006;5.798;2022-07-22T04:24:05;8.35;;;2.78;;
35126;SDS011;21300;52.006;5.798;2022-07-22T04:26:31;4.45;;;2.78;;
35126;SDS011;21300;52.006;5.798;2022-07-22T04:28:57;10.07;;;3.47;;
35126;SDS011;21300;52.006;5.798;2022-07-22T04:31:23;7.22;;;3.72;;
35126;SDS011;21300;52.006;5.798;2022-07-22T04:33:48;7.35;;;3.15;;
35126;SDS011;21300;52.006;5.798;2022-07-22T04:36:14;4.40;;;2.47;;
35126;SDS011;21300;52.006;5.798;2022-07-22T04:38:39;6.70;;;3.03;;
35126;SDS011;21300;52.006;5.798;2022-07-22T04:41:05;7.80;;;3.83;;
35126;SDS011;21300;52.006;5.798;2022-07-22T04:43:31;7.60;;;3.40;;
35126;SDS011;21300;52.006;5.798;2022-07-22T04:45:57;5.60;;;3.03;;
35126;SDS011;21300;52.006;5.798;2022-07-22T04:48:23;6.28;;;3.33;;
35126;SDS011;21300;52.006;5.798;2022-07-22T04:50:48;9.77;;;3.40;;
35126;SDS011;21300;52.006;5.798;2022-07-22T04:53:14;10.02;;;3.53;;
35126;SDS011;21300;52.006;5.798;2022-07-22T04:55:40;7.40;;;3.10;;
35126;SDS011;21300;52.006;5.798;2022-07-22T04:58:05;8.00;;;3.33;;
35126;SDS011;21300;52.006;5.798;2022-07-22T05:00:31;7.72;;;3.00;;
35126;SDS011;21300;52.006;5.798;2022-07-22T05:02:57;11.27;;;3.47;;
35126;SDS011;21300;52.006;5.798;2022-07-22T05:05:22;9.93;;;2.80;;
35126;SDS011;21300;52.006;5.798;2022-07-22T05:07:49;6.32;;;2.60;;
35126;SDS011;21300;52.006;5.798;2022-07-22T05:10:15;4.63;;;2.00;;
35126;SDS011;21300;52.006;5.798;2022-07-22T05:12:40;6.28;;;2.15;;
35126;SDS011;21300;52.006;5.798;2022-07-22T05:15:06;8.57;;;2.55;;
35126;SDS011;21300;52.006;5.798;2022-07-22T05:17:32;9.93;;;2.97;;
35126;SDS011;21300;52.006;5.798;2022-07-22T05:19:57;6.35;;;2.08;;
35126;SDS011;21300;52.006;5.798;2022-07-22T05:22:23;9.15;;;2.85;;
35126;SDS011;21300;52.006;5.798;2022-07-22T05:24:49;6.55;;;2.60;;
35126;SDS011;21300;52.006;5.798;2022-07-22T05:27:15;7.72;;;2.55;;
35126;SDS011;21300;52.006;5.798;2022-07-22T05:29:41;11.82;;;2.40;;
35126;SDS011;21300;52.006;5.798;2022-07-22T05:32:07;4.22;;;2.15;;
35126;SDS011;21300;52.006;5.798;2022-07-22T05:34:32;4.47;;;2.63;;
35126;SDS011;21300;52.006;5.798;2022-07-22T05:36:58;5.88;;;2.05;;
35126;SDS011;21300;52.006;5.798;2022-07-22T05:39:24;7.93;;;2.42;;
35126;SDS011;21300;52.006;5.798;2022-07-22T05:41:49;9.32;;;2.85;;
35126;SDS011;21300;52.006;5.798;2022-07-22T05:44:15;6.20;;;2.15;;
35126;SDS011;21300;52.006;5.798;2022-07-22T05:46:40;5.53;;;2.10;;
35126;SDS011;21300;52.006;5.798;2022-07-22T05:49:06;8.95;;;2.67;;
35126;SDS011;21300;52.006;5.798;2022-07-22T05:51:32;9.85;;;2.92;;
35126;SDS011;21300;52.006;5.798;2022-07-22T05:53:59;7.45;;;2.40;;
35126;SDS011;21300;52.006;5.798;2022-07-22T05:56:27;6.88;;;2.05;;
35126;SDS011;21300;52.006;5.798;2022-07-22T05:58:53;6.82;;;2.25;;
35126;SDS011;21300;52.006;5.798;2022-07-22T06:01:21;6.15;;;1.98;;
35126;SDS011;21300;52.006;5.798;2022-07-22T06:03:47;5.38;;;1.92;;
35126;SDS011;21300;52.006;5.798;2022-07-22T06:06:12;7.70;;;2.65;;
35126;SDS011;21300;52.006;5.798;2022-07-22T06:08:38;6.97;;;2.00;;
35126;SDS011;21300;52.006;5.798;2022-07-22T06:11:04;5.80;;;1.92;;
35126;SDS011;21300;52.006;5.798;2022-07-22T06:13:29;7.18;;;1.80;;
35126;SDS011;21300;52.006;5.798;2022-07-22T06:15:56;8.52;;;1.80;;
35126;SDS011;21300;52.006;5.798;2022-07-22T06:18:21;4.97;;;1.58;;
35126;SDS011;21300;52.006;5.798;2022-07-22T06:20:47;7.35;;;2.08;;
35126;SDS011;21300;52.006;5.798;2022-07-22T06:23:13;5.80;;;2.15;;
35126;SDS011;21300;52.006;5.798;2022-07-22T06:25:39;6.97;;;2.08;;
35126;SDS011;21300;52.006;5.798;2022-07-22T06:28:04;5.75;;;2.00;;
35126;SDS011;21300;52.006;5.798;2022-07-22T06:30:30;6.50;;;1.98;;
35126;SDS011;21300;52.006;5.798;2022-07-22T06:32:55;7.05;;;2.10;;
35126;SDS011;21300;52.006;5.798;2022-07-22T06:35:21;6.78;;;1.98;;
35126;SDS011;21300;52.006;5.798;2022-07-22T06:37:49;7.53;;;1.92;;
35126;SDS011;21300;52.006;5.798;2022-07-22T06:40:15;3.97;;;1.90;;
35126;SDS011;21300;52.006;5.798;2022-07-22T06:42:40;8.43;;;1.60;;
35126;SDS011;21300;52.006;5.798;2022-07-22T06:45:06;7.63;;;1.55;;
35126;SDS011;21300;52.006;5.798;2022-07-22T06:47:32;9.40;;;2.13;;
35126;SDS011;21300;52.006;5.798;2022-07-22T06:50:00;5.95;;;1.70;;
35126;SDS011;21300;52.006;5.798;2022-07-22T06:52:28;5.30;;;1.85;;
35126;SDS011;21300;52.006;5.798;2022-07-22T06:54:53;7.85;;;1.90;;
35126;SDS011;21300;52.006;5.798;2022-07-22T06:57:19;5.78;;;1.65;;
35126;SDS011;21300;52.006;5.798;2022-07-22T06:59:44;6.93;;;1.75;;
35126;SDS011;21300;52.006;5.798;2022-07-22T07:02:10;6.20;;;1.80;;
35126;SDS011;21300;52.006;5.798;2022-07-22T07:04:35;6.15;;;1.90;;
35126;SDS011;21300;52.006;5.798;2022-07-22T07:07:01;5.50;;;1.58;;
35126;SDS011;21300;52.006;5.798;2022-07-22T07:09:27;5.85;;;1.60;;
35126;SDS011;21300;52.006;5.798;2022-07-22T07:11:52;6.28;;;1.65;;
35126;SDS011;21300;52.006;5.798;2022-07-22T07:14:18;9.68;;;1.60;;
35126;SDS011;21300;52.006;5.798;2022-07-22T07:16:43;8.45;;;1.75;;
35126;SDS011;21300;52.006;5.798;2022-07-22T07:19:09;5.53;;;1.80;;
35126;SDS011;21300;52.006;5.798;2022-07-22T07:21:35;10.52;;;1.70;;
35126;SDS011;21300;52.006;5.798;2022-07-22T07:24:00;7.88;;;1.90;;
35126;SDS011;21300;52.006;5.798;2022-07-22T07:26:26;7.10;;;1.60;;
35126;SDS011;21300;52.006;5.798;2022-07-22T07:28:52;4.28;;;1.63;;
35126;SDS011;21300;52.006;5.798;2022-07-22T07:31:18;8.27;;;1.52;;
35126;SDS011;21300;52.006;5.798;2022-07-22T07:33:44;9.65;;;1.58;;
35126;SDS011;21300;52.006;5.798;2022-07-22T07:36:09;5.45;;;1.45;;
35126;SDS011;21300;52.006;5.798;2022-07-22T07:38:35;4.75;;;1.42;;
35126;SDS011;21300;52.006;5.798;2022-07-22T07:41:02;8.23;;;1.75;;
35126;SDS011;21300;52.006;5.798;2022-07-22T07:43:27;5.13;;;1.33;;
35126;SDS011;21300;52.006;5.798;2022-07-22T07:45:53;7.15;;;1.67;;
35126;SDS011;21300;52.006;5.798;2022-07-22T07:48:19;6.88;;;1.58;;
35126;SDS011;21300;52.006;5.798;2022-07-22T07:50:44;7.30;;;1.50;;
35126;SDS011;21300;52.006;5.798;2022-07-22T07:53:14;6.82;;;1.67;;
35126;SDS011;21300;52.006;5.798;2022-07-22T07:55:40;5.40;;;1.40;;
35126;SDS011;21300;52.006;5.798;2022-07-22T07:58:06;7.32;;;1.40;;
35126;SDS011;21300;52.006;5.798;2022-07-22T08:00:32;10.68;;;1.85;;
35126;SDS011;21300;52.006;5.798;2022-07-22T08:02:58;7.78;;;1.95;;
35126;SDS011;21300;52.006;5.798;2022-07-22T08:05:25;4.22;;;1.67;;
35126;SDS011;21300;52.006;5.798;2022-07-22T08:07:51;8.57;;;1.85;;
35126;SDS011;21300;52.006;5.798;2022-07-22T08:10:17;8.88;;;2.00;;
35126;SDS011;21300;52.006;5.798;2022-07-22T08:12:43;3.20;;;1.40;;
35126;SDS011;21300;52.006;5.798;2022-07-22T08:15:27;7.70;;;2.13;;
35126;SDS011;21300;52.006;5.798;2022-07-22T08:17:54;7.50;;;1.75;;
35126;SDS011;21300;52.006;5.798;2022-07-22T08:20:20;5.82;;;1.52;;
35126;SDS011;21300;52.006;5.798;2022-07-22T08:22:46;7.97;;;1.92;;
35126;SDS011;21300;52.006;5.798;2022-07-22T08:25:12;5.97;;;1.92;;
35126;SDS011;21300;52.006;5.798;2022-07-22T08:27:38;5.88;;;1.77;;
35126;SDS011;21300;52.006;5.798;2022-07-22T08:30:22;11.38;;;2.00;;
35126;SDS011;21300;52.006;5.798;2022-07-22T08:32:48;6.07;;;1.70;;
35126;SDS011;21300;52.006;5.798;2022-07-22T08:35:14;8.27;;;2.10;;
35126;SDS011;21300;52.006;5.798;2022-07-22T08:37:40;9.02;;;1.67;;
35126;SDS011;21300;52.006;5.798;2022-07-22T08:40:06;4.25;;;1.98;;
35126;SDS011;21300;52.006;5.798;2022-07-22T08:42:37;7.05;;;1.95;;
35126;SDS011;21300;52.006;5.798;2022-07-22T08:45:04;7.35;;;1.65;;
35126;SDS011;21300;52.006;5.798;2022-07-22T08:47:30;5.75;;;1.92;;
35126;SDS011;21300;52.006;5.798;2022-07-22T08:49:56;6.63;;;1.73;;
35126;SDS011;21300;52.006;5.798;2022-07-22T09:07:28;7.35;;;2.08;;
35126;SDS011;21300;52.006;5.798;2022-07-22T09:10:00;5.03;;;1.83;;
35126;SDS011;21300;52.006;5.798;2022-07-22T09:12:26;10.68;;;2.10;;
35126;SDS011;21300;52.006;5.798;2022-07-22T09:14:54;8.38;;;1.88;;
35126;SDS011;21300;52.006;5.798;2022-07-22T09:17:28;4.03;;;1.50;;
35126;SDS011;21300;52.006;5.798;2022-07-22T09:19:55;7.70;;;1.65;;
35126;SDS011;21300;52.006;5.798;2022-07-22T09:22:38;9.18;;;1.90;;
35126;SDS011;21300;52.006;5.798;2022-07-22T09:30:30;3.67;;;1.52;;
35126;SDS011;21300;52.006;5.798;2022-07-22T09:32:56;8.05;;;1.52;;
35126;SDS011;21300;52.006;5.798;2022-07-22T09:35:22;3.60;;;1.50;;
35126;SDS011;21300;52.006;5.798;2022-07-22T09:40:20;4.60;;;1.30;;
35126;SDS011;21300;52.006;5.798;2022-07-22T09:42:48;5.05;;;1.40;;
35126;SDS011;21300;52.006;5.798;2022-07-22T09:45:16;3.33;;;1.33;;
35126;SDS011;21300;52.006;5.798;2022-07-22T09:47:43;3.35;;;1.23;;
35126;SDS011;21300;52.006;5.798;2022-07-22T09:50:20;3.97;;;1.30;;
35126;SDS011;21300;52.006;5.798;2022-07-22T09:52:49;3.03;;;1.00;;
35126;SDS011;21300;52.006;5.798;2022-07-22T09:55:16;5.78;;;1.00;;
35126;SDS011;21300;52.006;5.798;2022-07-22T09:57:43;6.57;;;1.30;;
35126;SDS011;21300;52.006;5.798;2022-07-22T10:00:10;4.15;;;1.40;;
35126;SDS011;21300;52.006;5.798;2022-07-22T10:02:57;6.60;;;1.50;;
35126;SDS011;21300;52.006;5.798;2022-07-22T10:05:25;5.68;;;1.38;;
35126;SDS011;21300;52.006;5.798;2022-07-22T10:07:52;4.32;;;1.08;;
35126;SDS011;21300;52.006;5.798;2022-07-22T10:10:20;5.22;;;1.30;;
35126;SDS011;21300;52.006;5.798;2022-07-22T10:12:54;4.30;;;1.30;;
35126;SDS011;21300;52.006;5.798;2022-07-22T10:15:21;2.00;;;1.23;;
35126;SDS011;21300;52.006;5.798;2022-07-22T10:17:49;4.20;;;1.30;;
35126;SDS011;21300;52.006;5.798;2022-07-22T10:20:21;7.18;;;1.23;;
35126;SDS011;21300;52.006;5.798;2022-07-22T10:22:51;9.00;;;1.45;;
35126;SDS011;21300;52.006;5.798;2022-07-22T10:25:22;4.20;;;1.40;;
35126;SDS011;21300;52.006;5.798;2022-07-22T10:27:54;2.33;;;1.15;;
35126;SDS011;21300;52.006;5.798;2022-07-22T10:30:36;4.15;;;1.20;;
35126;SDS011;21300;52.006;5.798;2022-07-22T10:35:37;3.17;;;1.13;;
35126;SDS011;21300;52.006;5.798;2022-07-22T10:38:09;8.57;;;1.58;;
35126;SDS011;21300;52.006;5.798;2022-07-22T10:43:29;3.65;;;1.20;;
35126;SDS011;21300;52.006;5.798;2022-07-22T10:46:00;5.38;;;1.40;;
35126;SDS011;21300;52.006;5.798;2022-07-22T10:51:06;3.92;;;1.20;;
35126;SDS011;21300;52.006;5.798;2022-07-22T10:58:57;4.80;;;1.50;;
35126;SDS011;21300;52.006;5.798;2022-07-22T11:01:38;7.60;;;1.35;;
35126;SDS011;21300;52.006;5.798;2022-07-22T11:06:42;4.90;;;1.70;;
35126;SDS011;21300;52.006;5.798;2022-07-22T11:09:09;5.15;;;1.20;;
35126;SDS011;21300;52.006;5.798;2022-07-22T11:11:38;8.48;;;1.98;;
35126;SDS011;21300;52.006;5.798;2022-07-22T11:14:22;3.50;;;1.15;;
35126;SDS011;21300;52.006;5.798;2022-07-22T11:16:56;5.32;;;1.30;;
35126;SDS011;21300;52.006;5.798;2022-07-22T11:19:32;4.55;;;1.67;;
35126;SDS011;21300;52.006;5.798;2022-07-22T11:22:00;4.20;;;1.40;;
35126;SDS011;21300;52.006;5.798;2022-07-22T11:24:29;2.75;;;1.30;;
35126;SDS011;21300;52.006;5.798;2022-07-22T11:26:56;5.68;;;1.40;;
35126;SDS011;21300;52.006;5.798;2022-07-22T11:29:31;4.70;;;1.70;;
35126;SDS011;21300;52.006;5.798;2022-07-22T11:32:03;6.82;;;2.00;;
35126;SDS011;21300;52.006;5.798;2022-07-22T11:34:31;5.68;;;1.48;;
35126;SDS011;21300;52.006;5.798;2022-07-22T11:36:57;4.15;;;1.60;;
35126;SDS011;21300;52.006;5.798;2022-07-22T11:39:26;3.53;;;1.20;;
35126;SDS011;21300;52.006;5.798;2022-07-22T11:41:54;3.75;;;1.65;;
35126;SDS011;21300;52.006;5.798;2022-07-22T11:44:22;5.70;;;1.50;;
35126;SDS011;21300;52.006;5.798;2022-07-22T11:46:50;6.13;;;1.40;;
35126;SDS011;21300;52.006;5.798;2022-07-22T11:49:17;5.35;;;1.67;;
35126;SDS011;21300;52.006;5.798;2022-07-22T11:51:44;6.55;;;1.70;;
35126;SDS011;21300;52.006;5.798;2022-07-22T11:54:10;6.85;;;1.48;;
35126;SDS011;21300;52.006;5.798;2022-07-22T11:56:37;4.90;;;1.70;;
35126;SDS011;21300;52.006;5.798;2022-07-22T11:59:03;6.00;;;1.60;;
35126;SDS011;21300;52.006;5.798;2022-07-22T12:01:34;5.50;;;1.70;;
35126;SDS011;21300;52.006;5.798;2022-07-22T12:04:06;3.92;;;1.63;;
35126;SDS011;21300;52.006;5.798;2022-07-22T12:06:35;5.28;;;1.77;;
35126;SDS011;21300;52.006;5.798;2022-07-22T12:11:33;5.57;;;1.45;;
35126;SDS011;21300;52.006;5.798;2022-07-22T12:14:08;3.92;;;1.50;;
35126;SDS011;21300;52.006;5.798;2022-07-22T12:16:35;3.72;;;1.63;;
35126;SDS011;21300;52.006;5.798;2022-07-22T12:19:06;5.50;;;1.80;;
35126;SDS011;21300;52.006;5.798;2022-07-22T12:21:33;5.43;;;2.20;;
35126;SDS011;21300;52.006;5.798;2022-07-22T12:24:05;4.68;;;1.60;;
35126;SDS011;21300;52.006;5.798;2022-07-22T12:26:48;4.57;;;1.80;;
35126;SDS011;21300;52.006;5.798;2022-07-22T12:29:19;3.50;;;1.73;;
35126;SDS011;21300;52.006;5.798;2022-07-22T12:34:16;5.18;;;2.42;;
35126;SDS011;21300;52.006;5.798;2022-07-22T12:36:46;4.13;;;1.60;;
35126;SDS011;21300;52.006;5.798;2022-07-22T12:39:16;4.70;;;1.58;;
35126;SDS011;21300;52.006;5.798;2022-07-22T12:41:47;9.77;;;1.90;;
35126;SDS011;21300;52.006;5.798;2022-07-22T12:44:19;4.60;;;1.83;;
35126;SDS011;21300;52.006;5.798;2022-07-22T12:46:53;5.47;;;1.70;;
35126;SDS011;21300;52.006;5.798;2022-07-22T12:49:20;2.33;;;1.33;;
35126;SDS011;21300;52.006;5.798;2022-07-22T12:54:34;3.63;;;1.70;;
35126;SDS011;21300;52.006;5.798;2022-07-22T12:57:01;4.13;;;1.70;;
35126;SDS011;21300;52.006;5.798;2022-07-22T12:59:26;2.95;;;1.73;;
35126;SDS011;21300;52.006;5.798;2022-07-22T13:01:52;5.35;;;1.40;;
35126;SDS011;21300;52.006;5.798;2022-07-22T13:04:18;6.70;;;2.15;;
35126;SDS011;21300;52.006;5.798;2022-07-22T13:06:43;5.40;;;1.98;;
35126;SDS011;21300;52.006;5.798;2022-07-22T13:09:09;3.92;;;1.75;;
35126;SDS011;21300;52.006;5.798;2022-07-22T13:11:35;4.43;;;1.63;;
35126;SDS011;21300;52.006;5.798;2022-07-22T13:14:08;2.92;;;1.63;;
35126;SDS011;21300;52.006;5.798;2022-07-22T13:16:34;3.78;;;1.70;;
35126;SDS011;21300;52.006;5.798;2022-07-22T13:19:00;6.32;;;1.70;;
35126;SDS011;21300;52.006;5.798;2022-07-22T13:21:26;5.55;;;2.20;;
35126;SDS011;21300;52.006;5.798;2022-07-22T13:23:51;3.55;;;1.95;;
35126;SDS011;21300;52.006;5.798;2022-07-22T13:26:17;7.63;;;2.15;;
35126;SDS011;21300;52.006;5.798;2022-07-22T13:28:43;4.97;;;2.03;;
35126;SDS011;21300;52.006;5.798;2022-07-22T13:31:08;4.82;;;2.13;;
35126;SDS011;21300;52.006;5.798;2022-07-22T13:33:34;4.40;;;1.95;;
35126;SDS011;21300;52.006;5.798;2022-07-22T13:36:00;4.53;;;1.75;;
35126;SDS011;21300;52.006;5.798;2022-07-22T13:38:26;4.25;;;1.75;;
35126;SDS011;21300;52.006;5.798;2022-07-22T13:40:52;5.97;;;1.75;;
35126;SDS011;21300;52.006;5.798;2022-07-22T13:43:18;6.05;;;1.90;;
35126;SDS011;21300;52.006;5.798;2022-07-22T13:45:48;3.72;;;1.90;;
35126;SDS011;21300;52.006;5.798;2022-07-22T13:48:14;5.45;;;1.90;;
35126;SDS011;21300;52.006;5.798;2022-07-22T13:50:42;5.25;;;1.92;;
35126;SDS011;21300;52.006;5.798;2022-07-22T13:53:08;5.70;;;2.00;;
35126;SDS011;21300;52.006;5.798;2022-07-22T13:55:33;4.40;;;1.65;;
35126;SDS011;21300;52.006;5.798;2022-07-22T13:57:59;5.35;;;1.70;;
35126;SDS011;21300;52.006;5.798;2022-07-22T14:00:25;5.63;;;1.98;;
35126;SDS011;21300;52.006;5.798;2022-07-22T14:02:50;5.30;;;2.17;;
35126;SDS011;21300;52.006;5.798;2022-07-22T14:05:17;4.72;;;1.95;;
35126;SDS011;21300;52.006;5.798;2022-07-22T14:07:43;4.35;;;2.25;;
35126;SDS011;21300;52.006;5.798;2022-07-22T14:10:09;5.78;;;1.95;;
35126;SDS011;21300;52.006;5.798;2022-07-22T14:12:54;4.80;;;1.70;;
35126;SDS011;21300;52.006;5.798;2022-07-22T14:15:20;4.28;;;2.00;;
35126;SDS011;21300;52.006;5.798;2022-07-22T14:17:45;3.70;;;1.98;;
35126;SDS011;21300;52.006;5.798;2022-07-22T14:20:11;7.25;;;2.22;;
35126;SDS011;21300;52.006;5.798;2022-07-22T14:22:36;4.85;;;2.35;;
35126;SDS011;21300;52.006;5.798;2022-07-22T14:25:02;5.00;;;2.10;;
35126;SDS011;21300;52.006;5.798;2022-07-22T14:27:28;6.50;;;2.00;;
35126;SDS011;21300;52.006;5.798;2022-07-22T14:29:54;6.20;;;1.98;;
35126;SDS011;21300;52.006;5.798;2022-07-22T14:32:20;4.30;;;2.25;;
35126;SDS011;21300;52.006;5.798;2022-07-22T14:34:45;5.40;;;2.40;;
35126;SDS011;21300;52.006;5.798;2022-07-22T14:37:11;5.70;;;2.38;;
35126;SDS011;21300;52.006;5.798;2022-07-22T14:39:37;6.38;;;2.00;;
35126;SDS011;21300;52.006;5.798;2022-07-22T14:42:02;4.78;;;2.13;;
35126;SDS011;21300;52.006;5.798;2022-07-22T14:44:28;6.68;;;2.28;;
35126;SDS011;21300;52.006;5.798;2022-07-22T14:46:54;4.95;;;2.10;;
35126;SDS011;21300;52.006;5.798;2022-07-22T14:49:19;6.22;;;2.13;;
35126;SDS011;21300;52.006;5.798;2022-07-22T14:51:45;4.75;;;2.33;;
35126;SDS011;21300;52.006;5.798;2022-07-22T14:54:10;6.35;;;2.05;;
35126;SDS011;21300;52.006;5.798;2022-07-22T14:56:37;7.72;;;2.53;;
35126;SDS011;21300;52.006;5.798;2022-07-22T14:59:04;3.55;;;1.95;;
35126;SDS011;21300;52.006;5.798;2022-07-22T15:01:30;10.10;;;2.25;;
35126;SDS011;21300;52.006;5.798;2022-07-22T15:03:55;4.03;;;1.80;;
35126;SDS011;21300;52.006;5.798;2022-07-22T15:06:21;7.85;;;2.00;;
35126;SDS011;21300;52.006;5.798;2022-07-22T15:08:47;4.28;;;1.90;;
35126;SDS011;21300;52.006;5.798;2022-07-22T15:11:13;4.03;;;2.15;;
35126;SDS011;21300;52.006;5.798;2022-07-22T15:13:38;7.40;;;2.50;;
35126;SDS011;21300;52.006;5.798;2022-07-22T15:16:04;5.65;;;2.10;;
35126;SDS011;21300;52.006;5.798;2022-07-22T15:18:30;4.00;;;2.28;;
35126;SDS011;21300;52.006;5.798;2022-07-22T15:20:55;5.07;;;2.30;;
35126;SDS011;21300;52.006;5.798;2022-07-22T15:23:24;4.97;;;2.30;;
35126;SDS011;21300;52.006;5.798;2022-07-22T15:25:57;7.47;;;1.92;;
35126;SDS011;21300;52.006;5.798;2022-07-22T15:28:24;5.70;;;1.83;;
35126;SDS011;21300;52.006;5.798;2022-07-22T15:30:49;5.82;;;2.83;;